createdAt,value
2022-09-03T00:04:29.007Z,101193.13
2022-09-03T00:26:41.877Z,101177.19
2022-09-03T01:00:16.951Z,101053.09
2022-09-03T02:22:32.816Z,101169.69
2022-09-03T02:54:45.047Z,101166.38
2022-09-03T03:29:05.130Z,101113.41
2022-09-03T03:36:09.931Z,101042.56
2022-09-03T03:46:43.042Z,101143.84
2022-09-03T04:20:33.099Z,101084.06
2022-09-03T04:25:09.904Z,101153.78
2022-09-03T05:11:43.923Z,101094.72
2022-09-03T06:08:39.042Z,101064.66
2022-09-03T06:12:01.998Z,101000.19
2022-09-03T06:21:50.516Z,101085.56
2022-09-03T06:30:00.635Z,101018.56
2022-09-03T06:48:18.731Z,101154.94
2022-09-03T06:51:47.085Z,101153.53
2022-09-03T06:54:18.196Z,101053.28
2022-09-03T07:26:04.333Z,101026.25
2022-09-03T08:06:07.992Z,101057.59
2022-09-03T08:47:43.942Z,101164.16
2022-09-03T08:53:55.261Z,101114.00
2022-09-03T08:56:29.063Z,101156.25
2022-09-03T08:58:57.077Z,101139.97
2022-09-03T09:01:48.266Z,101168.13
2022-09-03T09:04:35.010Z,101166.56
2022-09-03T09:07:10.047Z,101169.13
2022-09-03T09:09:49.734Z,101166.09
2022-09-03T09:12:41.408Z,101166.16
2022-09-03T09:15:18.648Z,101164.13
2022-09-03T09:17:54.256Z,101165.22
2022-09-03T09:20:57.141Z,101161.72
2022-09-03T09:23:32.340Z,101161.19
2022-09-03T09:26:01.477Z,101150.44
2022-09-03T09:28:34.940Z,101154.47
2022-09-03T09:31:04.570Z,101144.41
2022-09-03T09:33:32.216Z,101149.09
2022-09-03T09:36:03.741Z,101150.38
2022-09-03T09:38:32.006Z,101145.59
2022-09-03T09:41:09.788Z,101142.94
2022-09-03T09:43:36.246Z,101142.50
2022-09-03T09:46:23.612Z,101142.84
2022-09-03T09:48:52.341Z,101142.63
2022-09-03T09:51:25.804Z,101158.06
2022-09-03T09:54:04.308Z,101159.41
2022-09-03T09:56:30.848Z,101129.44
2022-09-03T09:59:08.303Z,101158.50
2022-09-03T10:01:38.293Z,101138.56
2022-09-03T10:04:14.029Z,101150.28
2022-09-03T10:06:56.936Z,101117.81
2022-09-03T10:09:30.979Z,101139.66
2022-09-03T10:12:14.721Z,101144.16
2022-09-03T10:15:04.643Z,101139.38
2022-09-03T10:17:46.149Z,101149.78
2022-09-03T10:20:37.180Z,101150.28
2022-09-03T10:23:28.060Z,101141.78
2022-09-03T10:26:08.189Z,101141.78
2022-09-03T10:28:41.359Z,101138.59
2022-09-03T10:31:30.035Z,101125.75
2022-09-03T10:34:01.825Z,101135.91
2022-09-03T10:36:29.903Z,101138.31
2022-09-03T10:39:13.589Z,101125.28
2022-09-03T10:42:13.919Z,101133.28
2022-09-03T10:44:46.350Z,101128.47
2022-09-03T10:47:42.457Z,101126.38
2022-09-03T10:50:18.140Z,101135.41
2022-09-03T10:53:05.902Z,101125.03
2022-09-03T10:55:56.672Z,101121.03
2022-09-03T10:58:57.222Z,101117.31
2022-09-03T11:01:53.403Z,101133.53
2022-09-03T11:04:54.920Z,101123.41
2022-09-03T11:07:23.366Z,101114.09
2022-09-03T11:09:55.154Z,101126.09
2022-09-03T11:12:32.336Z,101111.97
2022-09-03T11:15:10.144Z,101126.91
2022-09-03T11:17:56.869Z,101113.06
2022-09-03T11:20:25.330Z,101107.72
2022-09-03T11:22:57.433Z,101090.16
2022-09-03T11:25:50.058Z,101122.09
2022-09-03T11:28:26.996Z,101019.88
2022-09-03T11:31:07.472Z,101115.19
2022-09-03T11:33:53.149Z,101068.34
2022-09-03T11:37:02.562Z,101030.28
2022-09-03T11:39:51.072Z,101014.28
2022-09-03T11:42:56.140Z,101024.41
2022-09-03T11:49:28.078Z,101014.56
2022-09-03T11:52:21.101Z,101102.94
2022-09-03T11:55:07.675Z,101025.50
2022-09-03T11:57:59.622Z,101048.13
2022-09-03T12:00:46.787Z,101009.81
2022-09-03T12:03:33.091Z,101069.94
2022-09-03T12:06:46.131Z,101004.47
2022-09-03T12:10:33.426Z,101074.47
2022-09-03T12:13:52.105Z,101044.91
2022-09-03T12:17:00.414Z,101030.03
2022-09-03T12:20:30.810Z,101100.28
2022-09-03T12:26:51.312Z,101010.06
2022-09-03T12:29:48.676Z,101039.88
2022-09-03T12:36:56.352Z,101055.78
2022-09-03T12:43:38.993Z,101032.66
2022-09-03T12:46:19.142Z,101016.69
2022-09-03T12:52:56.597Z,101046.44
2022-09-03T12:56:05.021Z,101105.22
2022-09-03T12:59:20.583Z,101028.69
2022-09-03T13:02:48.319Z,101097.34
2022-09-03T13:06:04.238Z,101025.72
2022-09-03T13:08:49.377Z,101008.53
2022-09-03T14:19:58.661Z,101086.84
2022-09-03T15:38:07.450Z,101009.69
2022-09-03T15:40:46.197Z,101085.09
2022-09-03T15:43:38.904Z,101103.16
2022-09-03T15:46:13.552Z,101085.28
2022-09-03T15:48:50.680Z,101090.72
2022-09-03T15:51:27.222Z,101103.94
2022-09-03T15:54:16.036Z,101103.34
2022-09-03T15:57:06.000Z,101106.22
2022-09-03T15:59:37.739Z,101077.84
2022-09-03T16:02:10.925Z,101079.03
2022-09-03T16:04:56.702Z,101090.81
2022-09-03T16:07:48.861Z,101090.38
2022-09-03T16:10:25.841Z,101083.34
2022-09-03T16:13:25.309Z,101077.88
2022-09-03T16:16:01.540Z,101080.47
2022-09-03T16:18:40.827Z,101073.75
2022-09-03T16:21:12.996Z,101073.00
2022-09-03T16:23:47.325Z,101102.91
2022-09-03T16:26:20.053Z,101101.47
2022-09-03T16:28:53.555Z,101102.69
2022-09-03T16:31:43.137Z,101103.84
2022-09-03T16:35:08.736Z,101106.84
2022-09-03T16:38:11.615Z,101091.66
2022-09-03T16:40:51.000Z,101106.53
2022-09-03T16:43:40.675Z,101106.84
2022-09-03T16:46:23.227Z,101102.50
2022-09-03T16:49:10.891Z,101106.66
2022-09-03T16:52:11.646Z,101103.78
2022-09-03T16:54:44.451Z,101100.41
2022-09-03T16:57:40.334Z,101103.00
2022-09-03T17:00:12.296Z,101079.19
2022-09-03T17:03:25.073Z,101100.00
2022-09-03T17:06:01.797Z,101097.13
2022-09-03T17:08:43.939Z,101090.50
2022-09-03T17:11:36.299Z,101099.09
2022-09-03T17:14:16.552Z,101108.25
2022-09-03T17:16:49.952Z,101106.69
2022-09-03T17:19:37.744Z,101119.94
2022-09-03T17:22:28.108Z,101105.34
2022-09-03T17:25:03.802Z,101091.78
2022-09-03T17:27:42.344Z,101112.94
2022-09-03T17:30:23.913Z,101113.47
2022-09-03T17:33:09.702Z,101116.22
2022-09-03T17:36:01.199Z,101120.56
2022-09-03T17:38:42.921Z,101073.03
2022-09-03T17:41:20.462Z,101100.22
2022-09-03T17:44:04.320Z,101126.84
2022-09-03T17:46:42.799Z,101126.31
2022-09-03T17:49:10.192Z,101115.16
2022-09-03T17:51:45.989Z,101088.31
2022-09-03T17:54:16.448Z,101137.03
2022-09-03T17:56:48.204Z,101142.63
2022-09-03T17:59:29.199Z,101126.34
2022-09-03T18:02:15.518Z,101133.25
2022-09-03T18:04:53.616Z,101131.41
2022-09-03T18:07:41.909Z,101156.13
2022-09-03T18:10:17.287Z,101138.44
2022-09-03T18:13:03.014Z,101136.03
2022-09-03T18:15:38.310Z,101166.66
2022-09-03T18:18:08.684Z,101135.88
2022-09-03T18:21:26.629Z,101149.03
2022-09-03T18:24:43.762Z,101178.19
2022-09-03T18:27:39.180Z,101175.78
2022-09-03T18:30:27.085Z,101167.38
2022-09-03T18:33:12.075Z,101180.03
2022-09-03T18:35:57.100Z,101173.34
2022-09-03T18:38:47.396Z,101160.94
2022-09-03T18:41:57.652Z,101207.50
2022-09-03T18:44:48.896Z,101203.44
2022-09-03T18:48:04.629Z,101208.38
2022-09-03T18:51:01.273Z,101208.13
2022-09-03T18:54:14.127Z,101211.75
2022-09-03T18:57:06.774Z,101220.72
2022-09-03T19:00:19.815Z,101156.09
2022-09-03T19:03:17.285Z,101216.03
2022-09-03T19:06:21.969Z,101223.53
2022-09-03T19:09:48.071Z,101210.13
2022-09-03T19:13:01.787Z,101226.66
2022-09-03T19:15:55.509Z,101228.28
2022-09-03T19:19:10.771Z,101237.13
2022-09-03T19:22:04.341Z,101239.34
2022-09-03T19:24:50.031Z,101240.09
2022-09-03T19:27:56.921Z,101246.56
2022-09-03T19:31:09.691Z,101240.56
2022-09-03T19:34:10.359Z,101202.94
2022-09-03T19:37:03.216Z,101231.88
2022-09-03T19:40:19.043Z,101248.91
2022-09-03T19:43:15.984Z,101247.66
2022-09-03T19:46:24.153Z,101257.00
2022-09-03T19:49:12.348Z,101259.28
2022-09-03T19:52:27.827Z,101260.34
2022-09-03T19:55:14.301Z,101238.38
2022-09-03T19:58:00.819Z,101250.22
2022-09-03T20:00:47.024Z,101264.13
2022-09-03T20:03:32.937Z,101265.47
2022-09-03T20:06:19.980Z,101256.69
2022-09-03T20:09:06.266Z,101246.59
2022-09-03T20:11:32.694Z,101266.69
2022-09-03T20:14:14.803Z,101260.84
2022-09-03T20:16:59.461Z,101276.75
2022-09-03T20:19:37.758Z,101280.53
2022-09-03T20:22:15.633Z,101244.59
2022-09-03T20:25:13.720Z,101275.06
2022-09-03T20:28:18.746Z,101283.41
2022-09-03T20:30:51.077Z,101278.88
2022-09-03T20:33:37.862Z,101241.25
2022-09-03T20:36:50.421Z,101283.75
2022-09-03T20:39:31.845Z,101288.78
2022-09-03T20:42:14.627Z,101264.66
2022-09-03T20:44:48.019Z,101290.19
2022-09-03T20:47:45.380Z,101290.88
2022-09-03T20:50:44.133Z,101289.34
2022-09-03T20:53:32.530Z,101289.91
2022-09-03T20:56:04.032Z,101291.22
2022-09-03T20:58:30.319Z,101300.88
2022-09-03T21:01:08.778Z,101267.38
2022-09-03T21:04:17.617Z,101278.84
2022-09-03T21:06:48.505Z,101297.81
2022-09-03T21:09:37.994Z,101294.94
2022-09-03T21:12:15.009Z,101279.72
2022-09-03T21:14:47.718Z,101294.88
2022-09-03T21:17:47.160Z,101299.56
2022-09-03T21:20:37.508Z,101275.84
2022-09-03T21:23:15.235Z,101303.56
2022-09-03T21:26:09.151Z,101294.06
2022-09-03T21:28:40.279Z,101305.56
2022-09-03T21:31:12.772Z,101311.53
2022-09-03T21:33:39.524Z,101317.13
2022-09-03T21:36:12.101Z,101319.16
2022-09-03T21:38:45.939Z,101313.72
2022-09-03T21:41:26.133Z,101312.13
2022-09-03T21:44:01.800Z,101283.47
2022-09-03T21:46:32.851Z,101309.13
2022-09-03T21:49:10.901Z,101272.78
2022-09-03T21:51:52.519Z,101312.72
2022-09-03T21:54:30.678Z,101311.41
2022-09-03T21:57:14.041Z,101324.19
2022-09-03T21:59:46.369Z,101318.59
2022-09-03T22:02:26.001Z,101318.88
2022-09-03T22:04:53.661Z,101321.28
2022-09-03T22:07:44.141Z,101319.50
2022-09-03T22:10:13.657Z,101317.00
2022-09-03T22:13:19.417Z,101303.63
2022-09-03T22:15:50.081Z,101311.50
2022-09-03T22:18:37.862Z,101323.25
2022-09-03T22:21:17.039Z,101316.19
2022-09-03T22:23:57.500Z,101306.72
2022-09-03T22:26:32.237Z,101294.81
2022-09-03T22:29:07.973Z,101301.03
2022-09-03T22:31:52.988Z,101335.78
2022-09-03T22:34:31.720Z,101313.84
2022-09-03T22:37:03.496Z,101314.00
2022-09-03T22:39:41.404Z,101331.97
2022-09-03T22:42:26.625Z,101327.31
2022-09-03T22:45:05.165Z,101338.72
2022-09-03T22:47:37.324Z,101336.63
2022-09-03T22:50:42.718Z,101339.66
2022-09-03T22:53:34.379Z,101339.88
2022-09-03T22:56:12.530Z,101347.84
2022-09-03T22:59:00.732Z,101320.22
2022-09-03T23:01:31.331Z,101348.88
2022-09-03T23:04:27.082Z,101356.38
2022-09-03T23:07:22.340Z,101321.88
2022-09-03T23:09:58.317Z,101357.03
2022-09-03T23:12:35.390Z,101365.69
2022-09-03T23:15:06.645Z,101363.69
2022-09-03T23:17:38.891Z,101338.63
2022-09-03T23:22:40.452Z,101370.97
2022-09-03T23:25:12.935Z,101361.91
2022-09-03T23:27:49.392Z,101367.16
2022-09-03T23:30:16.651Z,101357.28
2022-09-03T23:32:43.847Z,101339.28
2022-09-03T23:35:17.705Z,101299.47
2022-09-03T23:38:05.280Z,101363.09
2022-09-03T23:40:45.981Z,101366.13
2022-09-03T23:43:38.378Z,101373.00
2022-09-03T23:46:16.940Z,101372.19
2022-09-03T23:48:55.373Z,101370.34
2022-09-03T23:51:32.798Z,101373.91
2022-09-03T23:54:27.537Z,101367.69
2022-09-03T23:57:12.408Z,101378.25
